NL: Dit is een oude website, die alleen gebruikt wordt om te testen, klik hier om naar de recente site te gaan.

EN: Visit my current website using this link.



Lokaal brand risico:
CBI


Regionaal brand risico: Meer informatie


webcam Meer informatie webcam


Bezoek onze andere website:

Wilsele/HerentWebsite of another weatherstation



METAR rapporten vliegvelden

   
EBAW - Antwerp
Gewijzigd: 07-07-2020 01:50
Helder  
Helder  
   Wind: Westen 4 km/h
Wind: Westen 4 km/h
Temperatuur: 15°C
Dauwpunt: 11°C
Vochtigheid: 77%
Barometer: 1022 hPa
Zicht: meer dan 10 km
Bewolking: Helder
EBAW 062350Z AUTO 28002KT CAVOK 15/11 Q1022
EBLG - Li├Ęge
Gewijzigd: 07-07-2020 01:20
Helder  
Helder  
   Wind: ZW 11 km/h
Wind: ZW 11 km/h
Temperatuur: 13°C
Dauwpunt: 9°C
Vochtigheid: 77%
Barometer: 1023 hPa
Zicht: meer dan 10 km
Bewolking: Helder
EBLG 062320Z 23006KT CAVOK 13/09 Q1023 NOSIG
EBOS - Oostende
Gewijzigd: 07-07-2020 01:50
Grotendeels bewolkt  
Grotendeels bewolkt  
   Wind: ZZW 7 km/h
Wind: ZZW 7 km/h
Temperatuur: 14°C
Dauwpunt: 11°C
Vochtigheid: 82%
Barometer: 1022 hPa
Bewolking: Grotendeels bewolkt
Zicht: meer dan 10 km
Bewolking: Grotendeels bewolkt 4800 ft
EBOS 062350Z 21004KT 9999 BKN048 14/11 Q1022 NOSIG
EHBK - Maastricht
Gewijzigd: 07-07-2020 01:55
Gedeeltelijk bewolkt  
Gedeeltelijk bewolkt  
   Wind: Westen 6 km/h
Wind: Westen 6 km/h
Temperatuur: 13°C
Dauwpunt: 10°C
Vochtigheid: 82%
Barometer: 1022 hPa
Bewolking: Gedeeltelijk bewolkt
Zicht: meer dan 10 km
Bewolking: Gedeeltelijk bewolkt
EHBK 062355Z AUTO 27003KT 230V320 9999 NSC 13/10 Q1022
ELLX - Luxemburg
Gewijzigd: 07-07-2020 01:50
Helder  
Helder  
   Wind: NW 7 km/h
Wind: NW 7 km/h
Temperatuur: 10°C
Voelt als: 9°C
Dauwpunt: 6°C
Vochtigheid: 76%
Barometer: 1023 hPa
Zicht: meer dan 10 km
Bewolking: Helder
ELLX 062350Z 31004KT CAVOK 10/06 Q1023 NOSIG
EBCV - Mons/Bergen
Gewijzigd: 07-07-2020 01:25
Helder  
Helder  
   Wind: ZZW 7 km/h
Wind: ZZW 7 km/h
Temperatuur: 10°C
Voelt als: 9°C
Dauwpunt: 8°C
Vochtigheid: 88%
Barometer: 1022 hPa
Bewolking: Helder
Zicht: meer dan 10 km
Bewolking: Helder
EBCV 062325Z AUTO 20004KT 9999 NCD 10/08 Q1022 BLU

Script ontwikkeld door  Saratoga-weather.org Aangepast voor de template door  Weerstation Leuven

Apparatuur in gebruik:

Weerstation
Davis VUE

Weerprogramma
Davis Weatherlink.Com

Webleverancier
Robohost

Davis VUE

Davis Weatherlink.Com

Robohost